Flight Briefing for CMB851

Departure Arrival
Paya Lebar Airport (WSAP)
Click to view FAA NOTAMS
Yokota AFB (RJTY)
Click to view FAA NOTAMS
Departure Time Arrival Time
N/A N/A
Aircraft Distance
B757-200SF 2891nm
Departure METAR Arrival METAR
WSAP 200800Z 07010KT 9999 BKN020 SCT300 33/23 Q1007 RJTY 200756Z AUTO 18010KT 10SM CLR 18/M04 A3006 RMK AO2 SLP184 T01831038 FZRANO $
Suggested Route
TOMAN L625 MEVIN B462 KAZIK Y59 AZAMA Y57 BUNGU XAC


View recent IFR Routes data
Notes
USTRANSCOM CONTRACT FLIGHT

Charts and Procedures

Charts for WSAP
No chart available
Charts for RJTY
No chart available

Windy.com Weather Map